FZNA

Goma International Airport

Airport
ICAO code
FZNA
IATA Code
GOM
Summary
ICAO Region
AFI
Location

, Nord-Kivu

Serving
Goma
Elevation
5089 ft
Coordinates
1° 40' 15" S , 29° 14' 18" E
Metar
Observation
FZNA 131400Z 18008KT 4000 HZ SCT016 FEW018CB BKN100 25/15 Q1017 NOSIG
Station
Goma
Date/Time
2022-08-13 14:00:00
Wind direction
180°
Wind speed
08 kts
Lowest cloud amount
scattered clouds
Temperature
25°C
Dew point
15°C
Humidity
53%
QNH
1017 hPa
Weather condition
n/a

Runways

Designator Length Width Surface Rops
18/36 1995 45 ASP No/No

Airport map

Aerial View

SKYbrary Partners:

Safety knowledge contributed by: